createdAt,value
2023-08-12T00:00:45.204Z,203.96
2023-08-12T00:01:45.236Z,200.87
2023-08-12T00:02:45.252Z,199.53
2023-08-12T00:03:45.256Z,202.03
2023-08-12T00:04:45.274Z,201.42
2023-08-12T00:05:45.321Z,200.65
2023-08-12T00:06:45.350Z,202.57
2023-08-12T00:07:45.369Z,198.81
2023-08-12T00:08:45.372Z,201.62
2023-08-12T00:09:45.415Z,197.37
2023-08-12T00:10:45.414Z,197.89
2023-08-12T00:11:45.506Z,200.48
2023-08-12T00:12:45.480Z,197.78
2023-08-12T00:13:45.518Z,195.97
2023-08-12T00:14:45.551Z,195.81
2023-08-12T00:15:45.569Z,193.76
2023-08-12T00:16:45.594Z,193.90
2023-08-12T00:17:45.703Z,195.24
2023-08-12T00:18:45.656Z,195.56
2023-08-12T00:19:45.692Z,197.27
2023-08-12T00:20:45.713Z,197.69
2023-08-12T00:21:45.735Z,193.57
2023-08-12T00:22:45.755Z,197.81
2023-08-12T00:23:45.790Z,194.53
2023-08-12T00:24:45.804Z,199.61
2023-08-12T00:25:45.840Z,199.50
2023-08-12T00:26:45.865Z,199.49
2023-08-12T00:27:45.916Z,199.22
2023-08-12T00:28:45.924Z,198.98
2023-08-12T00:29:45.954Z,197.63
2023-08-12T00:30:45.992Z,200.61
2023-08-12T00:31:46.018Z,203.22
2023-08-12T00:32:46.075Z,207.11
2023-08-12T00:33:46.079Z,208.48
2023-08-12T00:34:46.116Z,211.42
2023-08-12T00:35:46.140Z,207.11
2023-08-12T00:36:46.218Z,206.63
2023-08-12T00:37:46.210Z,207.67
2023-08-12T00:38:46.215Z,208.10
2023-08-12T00:39:46.267Z,208.42
2023-08-12T00:40:46.276Z,208.20
2023-08-12T00:41:46.309Z,206.86
2023-08-12T00:42:46.350Z,207.54
2023-08-12T00:43:46.386Z,204.72
2023-08-12T00:44:46.419Z,202.16
2023-08-12T00:45:46.433Z,206.21
2023-08-12T00:46:46.518Z,204.48
2023-08-12T00:47:46.558Z,205.76
2023-08-12T00:48:46.545Z,199.64
2023-08-12T00:49:46.626Z,201.96
2023-08-12T00:50:46.619Z,199.57
2023-08-12T00:51:46.694Z,194.93
2023-08-12T00:52:46.729Z,193.64
2023-08-12T00:53:46.727Z,193.96
2023-08-12T00:54:46.767Z,196.07
2023-08-12T00:55:46.837Z,194.91
2023-08-12T00:56:46.825Z,192.73
2023-08-12T00:57:46.882Z,193.57
2023-08-12T00:58:47.046Z,191.77
2023-08-12T00:59:46.945Z,190.43
2023-08-12T01:00:46.984Z,187.56
2023-08-12T01:01:47.061Z,188.81
2023-08-12T01:02:47.237Z,190.12
2023-08-12T01:03:47.184Z,187.33
2023-08-12T01:04:47.130Z,190.87
2023-08-12T01:05:47.160Z,191.11
2023-08-12T01:06:47.211Z,191.21
2023-08-12T01:07:47.236Z,191.84
2023-08-12T01:08:47.265Z,194.11
2023-08-12T01:09:47.314Z,193.41
2023-08-12T01:10:47.362Z,193.28
2023-08-12T01:11:47.372Z,195.70
2023-08-12T01:12:47.446Z,196.89
2023-08-12T01:13:47.457Z,195.83
2023-08-12T01:14:47.508Z,196.66
2023-08-12T01:15:47.557Z,196.26
2023-08-12T01:16:47.604Z,194.38
2023-08-12T01:17:47.649Z,196.33
2023-08-12T01:18:47.706Z,196.17
2023-08-12T01:19:47.703Z,196.67
2023-08-12T01:20:47.707Z,194.48
2023-08-12T01:21:47.746Z,197.60
2023-08-12T01:22:47.788Z,199.42
2023-08-12T01:23:47.839Z,197.47
2023-08-12T01:24:47.848Z,197.91
2023-08-12T01:25:47.878Z,200.02
2023-08-12T01:26:47.932Z,200.92
2023-08-12T01:27:47.988Z,201.48
2023-08-12T01:28:48.009Z,201.61
2023-08-12T01:29:48.051Z,200.15
2023-08-12T01:30:49.349Z,202.97
2023-08-12T01:31:48.121Z,201.29
2023-08-12T01:32:48.213Z,202.16
2023-08-12T01:33:48.204Z,202.10
2023-08-12T01:34:48.242Z,203.42
2023-08-12T01:35:48.282Z,201.94
2023-08-12T01:36:48.319Z,202.48
2023-08-12T01:37:48.379Z,202.50
2023-08-12T01:38:48.404Z,205.46
2023-08-12T01:39:48.424Z,203.99
2023-08-12T01:40:48.477Z,203.36
2023-08-12T01:41:48.545Z,205.60
2023-08-12T01:42:48.601Z,205.32
2023-08-12T01:43:48.595Z,206.16
2023-08-12T01:44:48.654Z,206.84
2023-08-12T01:45:48.707Z,209.58
2023-08-12T01:46:48.709Z,213.15
2023-08-12T01:47:48.812Z,210.65
2023-08-12T01:48:48.821Z,211.17
2023-08-12T01:49:48.870Z,213.97
2023-08-12T01:50:48.902Z,214.27
2023-08-12T01:51:48.940Z,210.30
2023-08-12T01:52:49.015Z,210.17
2023-08-12T01:53:49.047Z,208.86
2023-08-12T01:54:49.075Z,209.65
2023-08-12T01:55:49.116Z,211.55
2023-08-12T01:56:49.136Z,208.62
2023-08-12T01:57:49.204Z,207.34
2023-08-12T01:58:49.235Z,208.71
2023-08-12T01:59:49.297Z,209.62
2023-08-12T02:00:49.356Z,207.17
2023-08-12T02:01:49.421Z,202.91
2023-08-12T02:02:49.477Z,199.62
2023-08-12T02:03:49.522Z,199.32
2023-08-12T02:04:49.498Z,201.18
2023-08-12T02:05:49.580Z,200.11
2023-08-12T02:06:49.588Z,202.27
2023-08-12T02:07:49.719Z,200.79
2023-08-12T02:08:49.718Z,199.96
2023-08-12T02:09:49.727Z,200.44
2023-08-12T02:10:49.831Z,198.79
2023-08-12T02:11:49.845Z,199.58
2023-08-12T02:12:49.879Z,199.44
2023-08-12T02:13:49.949Z,196.77
2023-08-12T02:14:50.004Z,199.99
2023-08-12T02:15:50.130Z,198.77
2023-08-12T02:16:50.076Z,198.19
2023-08-12T02:17:50.167Z,199.23
2023-08-12T02:18:50.223Z,199.79
2023-08-12T02:19:50.257Z,197.93
2023-08-12T02:20:50.289Z,200.46
2023-08-12T02:21:50.343Z,200.81
2023-08-12T02:22:50.404Z,199.31
2023-08-12T02:23:50.456Z,201.30
2023-08-12T02:24:50.516Z,202.01
2023-08-12T02:25:50.588Z,206.33
2023-08-12T02:26:50.602Z,203.33
2023-08-12T02:27:50.679Z,208.51
2023-08-12T02:28:50.719Z,204.20
2023-08-12T02:29:50.779Z,206.44
2023-08-12T02:30:50.818Z,203.70
2023-08-12T02:31:50.924Z,207.19
2023-08-12T02:32:50.944Z,205.40
2023-08-12T02:33:51.018Z,208.34
2023-08-12T02:34:50.983Z,206.50
2023-08-12T02:35:51.046Z,212.79
2023-08-12T02:36:51.122Z,209.90
2023-08-12T02:37:51.151Z,209.40
2023-08-12T02:38:51.201Z,210.53
2023-08-12T02:39:51.258Z,207.02
2023-08-12T02:40:51.333Z,206.91
2023-08-12T02:41:51.358Z,208.84
2023-08-12T02:42:51.403Z,207.34
2023-08-12T02:43:51.485Z,208.67
2023-08-12T02:44:51.534Z,205.31
2023-08-12T02:45:51.636Z,207.21
2023-08-12T02:46:51.628Z,207.27
2023-08-12T02:47:51.782Z,204.29
2023-08-12T02:48:51.731Z,204.09
2023-08-12T02:49:51.790Z,204.08
2023-08-12T02:50:51.870Z,201.71
2023-08-12T02:51:51.913Z,203.97
2023-08-12T02:52:51.975Z,200.71
2023-08-12T02:53:52.030Z,201.83
2023-08-12T02:54:52.077Z,201.50
2023-08-12T02:55:52.123Z,200.85
2023-08-12T02:56:52.189Z,203.30
2023-08-12T02:57:52.269Z,203.34
2023-08-12T02:58:52.292Z,204.09
2023-08-12T02:59:52.365Z,207.59
2023-08-12T03:00:52.486Z,211.24
2023-08-12T03:01:52.508Z,208.34
2023-08-12T03:02:52.621Z,214.68
2023-08-12T03:03:52.636Z,211.84
2023-08-12T03:04:52.642Z,213.41
2023-08-12T03:05:52.714Z,215.76
2023-08-12T03:06:52.777Z,217.28
2023-08-12T03:07:52.861Z,214.50
2023-08-12T03:08:52.898Z,216.55
2023-08-12T03:09:52.962Z,213.79
2023-08-12T03:10:53.006Z,215.24
2023-08-12T03:11:53.146Z,212.18
2023-08-12T03:12:53.129Z,211.74
2023-08-12T03:13:53.176Z,209.71
2023-08-12T03:14:53.235Z,211.29
2023-08-12T03:15:53.360Z,207.59
2023-08-12T03:16:53.415Z,206.44
2023-08-12T03:17:53.498Z,206.17
2023-08-12T03:18:53.487Z,204.43
2023-08-12T03:19:53.535Z,200.80
2023-08-12T03:20:53.739Z,202.85
2023-08-12T03:21:53.695Z,204.26
2023-08-12T03:22:53.768Z,200.86
2023-08-12T03:23:53.797Z,199.86
2023-08-12T03:24:53.881Z,201.56
2023-08-12T03:25:53.921Z,200.07
2023-08-12T03:26:53.979Z,199.75
2023-08-12T03:27:54.059Z,198.07
2023-08-12T03:28:54.079Z,196.08
2023-08-12T03:29:54.172Z,195.50
2023-08-12T03:30:54.355Z,195.73
2023-08-12T03:31:54.336Z,196.37
2023-08-12T03:32:54.398Z,191.99
2023-08-12T03:33:54.428Z,189.26
2023-08-12T03:34:54.438Z,189.04
2023-08-12T03:35:54.508Z,187.75
2023-08-12T03:36:54.584Z,187.23
2023-08-12T03:37:54.607Z,184.02
2023-08-12T03:38:54.683Z,186.03
2023-08-12T03:39:54.750Z,178.54
2023-08-12T03:40:54.823Z,179.45
2023-08-12T03:41:54.894Z,178.79
2023-08-12T03:42:54.911Z,180.13
2023-08-12T03:43:54.974Z,177.02
2023-08-12T03:44:55.024Z,178.85
2023-08-12T03:45:55.073Z,180.69
2023-08-12T03:46:55.227Z,179.37
2023-08-12T03:47:55.275Z,179.65
2023-08-12T03:48:55.235Z,177.97
2023-08-12T03:49:55.287Z,177.57
2023-08-12T03:50:55.376Z,178.36
2023-08-12T03:51:55.369Z,178.80
2023-08-12T03:52:55.441Z,178.84
2023-08-12T03:53:55.476Z,177.28
2023-08-12T03:54:55.545Z,176.53
2023-08-12T03:55:55.572Z,175.73
2023-08-12T03:56:55.632Z,176.47
2023-08-12T03:57:55.698Z,174.55
2023-08-12T03:58:55.709Z,175.29
2023-08-12T03:59:55.791Z,178.76
2023-08-12T04:00:55.929Z,175.99
2023-08-12T04:01:55.867Z,174.15
2023-08-12T04:02:56.022Z,175.45
2023-08-12T04:03:56.021Z,181.15
2023-08-12T04:04:56.095Z,180.07
2023-08-12T04:05:56.101Z,178.26
2023-08-12T04:06:56.147Z,179.01
2023-08-12T04:07:56.252Z,181.53
2023-08-12T04:08:56.262Z,178.28
2023-08-12T04:09:56.338Z,179.04
2023-08-12T04:10:56.392Z,176.97
2023-08-12T04:11:56.415Z,176.41
2023-08-12T04:12:56.474Z,180.51
2023-08-12T04:13:56.570Z,177.87
2023-08-12T04:14:56.599Z,177.50
2023-08-12T04:15:56.673Z,177.74
2023-08-12T04:16:56.773Z,174.75
2023-08-12T04:17:56.833Z,174.68
2023-08-12T04:18:56.878Z,178.91
2023-08-12T04:19:56.944Z,177.25
2023-08-12T04:20:56.942Z,175.29
2023-08-12T04:21:56.981Z,178.23
2023-08-12T04:22:57.049Z,175.20
2023-08-12T04:23:57.091Z,175.82
2023-08-12T04:24:57.136Z,175.40
2023-08-12T04:25:57.213Z,179.53
2023-08-12T04:26:57.235Z,176.37
2023-08-12T04:27:57.308Z,174.96
2023-08-12T04:28:57.368Z,177.52
2023-08-12T04:29:57.421Z,176.44
2023-08-12T04:30:57.517Z,175.93
2023-08-12T04:31:57.582Z,178.11
2023-08-12T04:32:57.624Z,179.58
2023-08-12T04:33:57.681Z,179.93
2023-08-12T04:34:57.690Z,177.36
2023-08-12T04:35:57.758Z,181.70
2023-08-12T04:36:57.830Z,183.31
2023-08-12T04:37:59.673Z,183.56
2023-08-12T04:38:57.845Z,182.41
2023-08-12T04:39:57.855Z,182.50
2023-08-12T04:40:57.873Z,185.80
2023-08-12T04:41:57.820Z,185.29
2023-08-12T04:42:57.847Z,185.40
2023-08-12T04:43:57.809Z,187.26
2023-08-12T04:44:57.822Z,186.25
2023-08-12T04:45:57.851Z,184.39
2023-08-12T04:46:57.789Z,186.61
2023-08-12T04:47:57.898Z,184.94
2023-08-12T04:48:57.801Z,188.15
2023-08-12T04:49:57.778Z,183.98
2023-08-12T04:50:57.791Z,182.51
2023-08-12T04:51:57.780Z,182.88
2023-08-12T04:52:57.740Z,183.21
2023-08-12T04:53:57.759Z,182.30
2023-08-12T04:54:57.737Z,181.51
2023-08-12T04:55:57.763Z,184.38
2023-08-12T04:56:57.751Z,181.84
2023-08-12T04:57:57.759Z,179.96
2023-08-12T04:58:57.705Z,180.40
2023-08-12T04:59:57.733Z,176.41
2023-08-12T05:00:57.708Z,176.11
2023-08-12T05:02:04.585Z,176.06
2023-08-12T05:02:58.781Z,176.28
2023-08-12T05:03:57.690Z,173.62
2023-08-12T05:04:57.741Z,174.00
2023-08-12T05:05:57.665Z,164.69
2023-08-12T05:06:57.682Z,150.08
2023-08-12T05:07:57.670Z,142.93
2023-08-12T05:08:57.669Z,145.15
2023-08-12T05:09:57.654Z,149.79
2023-08-12T05:10:57.671Z,150.81
2023-08-12T05:11:57.637Z,155.57
2023-08-12T05:12:57.631Z,154.55
2023-08-12T05:13:57.630Z,157.96
2023-08-12T05:14:57.644Z,154.75
2023-08-12T05:15:57.646Z,150.93
2023-08-12T05:16:57.636Z,145.62
2023-08-12T05:17:57.678Z,149.26
2023-08-12T05:18:57.647Z,156.51
2023-08-12T05:19:57.646Z,156.33
2023-08-12T05:20:57.634Z,158.10
2023-08-12T05:21:57.632Z,161.61
2023-08-12T05:22:57.648Z,162.33
2023-08-12T05:23:57.692Z,167.65
2023-08-12T05:24:57.722Z,167.67
2023-08-12T05:25:57.757Z,164.89
2023-08-12T05:26:57.750Z,168.53
2023-08-12T05:27:57.780Z,170.39
2023-08-12T05:28:57.852Z,171.66
2023-08-12T05:29:57.877Z,172.28
2023-08-12T05:30:57.931Z,173.35
2023-08-12T05:31:57.996Z,172.83
2023-08-12T05:32:58.060Z,177.92
2023-08-12T05:33:58.018Z,179.34
2023-08-12T05:34:57.974Z,175.48
2023-08-12T05:35:58.016Z,177.08
2023-08-12T05:36:58.047Z,174.17
2023-08-12T05:37:58.031Z,176.00
2023-08-12T05:38:58.090Z,173.13
2023-08-12T05:39:58.070Z,176.80
2023-08-12T05:40:58.092Z,177.72
2023-08-12T05:41:58.119Z,180.47
2023-08-12T05:42:58.115Z,180.65
2023-08-12T05:43:58.109Z,180.36
2023-08-12T05:44:58.100Z,180.39
2023-08-12T05:45:58.118Z,179.29
2023-08-12T05:46:58.100Z,179.46
2023-08-12T05:47:58.160Z,185.29
2023-08-12T05:48:58.105Z,184.10
2023-08-12T05:49:58.085Z,182.99
2023-08-12T05:50:58.094Z,184.92
2023-08-12T05:51:58.093Z,180.43
2023-08-12T05:52:58.120Z,182.23
2023-08-12T05:53:58.126Z,180.71
2023-08-12T05:54:58.168Z,182.53
2023-08-12T05:55:58.236Z,182.71
2023-08-12T05:56:58.292Z,181.70
2023-08-12T05:57:58.362Z,181.51
2023-08-12T05:58:58.379Z,182.80
2023-08-12T05:59:58.407Z,184.64
2023-08-12T06:00:58.438Z,184.35
2023-08-12T06:01:58.416Z,185.22
2023-08-12T06:02:58.437Z,187.57
2023-08-12T06:03:58.481Z,188.80
2023-08-12T06:04:58.410Z,184.85
2023-08-12T06:05:58.424Z,185.94
2023-08-12T06:06:58.409Z,183.93
2023-08-12T06:07:58.431Z,184.56
2023-08-12T06:08:58.410Z,182.45
2023-08-12T06:09:58.424Z,185.85
2023-08-12T06:10:58.432Z,183.18
2023-08-12T06:11:58.415Z,186.89
2023-08-12T06:12:58.402Z,185.19
2023-08-12T06:13:58.413Z,185.61
2023-08-12T06:14:58.405Z,183.57
2023-08-12T06:15:58.413Z,185.57
2023-08-12T06:16:59.484Z,184.26
2023-08-12T06:17:58.387Z,187.16
2023-08-12T06:18:58.399Z,190.69
2023-08-12T06:19:58.411Z,186.42
2023-08-12T06:20:58.397Z,188.88
2023-08-12T06:21:58.401Z,188.05
2023-08-12T06:22:58.405Z,188.08
2023-08-12T06:23:58.373Z,187.41
2023-08-12T06:24:58.380Z,188.65
2023-08-12T06:25:58.377Z,192.03
2023-08-12T06:26:58.461Z,189.75
2023-08-12T06:27:58.423Z,191.70
2023-08-12T06:28:58.379Z,192.37
2023-08-12T06:29:58.387Z,191.27
2023-08-12T06:30:58.399Z,191.15
2023-08-12T06:31:58.423Z,192.63
2023-08-12T06:32:58.540Z,190.75
2023-08-12T06:33:58.526Z,188.68
2023-08-12T06:34:58.593Z,184.85
2023-08-12T06:35:58.669Z,186.19
2023-08-12T06:36:58.743Z,189.28
2023-08-12T06:37:58.793Z,188.69
2023-08-12T06:38:58.856Z,186.79
2023-08-12T06:39:58.916Z,185.84
2023-08-12T06:40:58.962Z,185.55
2023-08-12T06:41:59.032Z,180.62
2023-08-12T06:42:59.036Z,182.72
2023-08-12T06:43:59.094Z,180.81
2023-08-12T06:44:59.146Z,183.33
2023-08-12T06:45:59.250Z,183.26
2023-08-12T06:46:59.320Z,184.04
2023-08-12T06:47:59.345Z,179.12
2023-08-12T06:48:59.375Z,177.45
2023-08-12T06:49:59.407Z,180.93
2023-08-12T06:50:59.514Z,179.72
2023-08-12T06:51:59.546Z,183.77
2023-08-12T06:52:59.595Z,181.52
2023-08-12T06:53:59.677Z,180.12
2023-08-12T06:54:59.708Z,181.37
2023-08-12T06:55:59.792Z,184.39
2023-08-12T06:56:59.830Z,182.10
2023-08-12T06:57:59.901Z,181.75
2023-08-12T06:58:59.935Z,174.96
2023-08-12T06:59:59.986Z,172.78
2023-08-12T07:01:00.045Z,173.44
2023-08-12T07:01:59.998Z,171.16
2023-08-12T07:03:00.033Z,170.95
2023-08-12T07:04:00.085Z,171.85
2023-08-12T07:05:00.033Z,172.38
2023-08-12T07:06:00.010Z,169.06
2023-08-12T07:07:00.023Z,172.28
2023-08-12T07:08:00.056Z,169.83
2023-08-12T07:09:00.009Z,171.48
2023-08-12T07:10:00.038Z,172.12
2023-08-12T07:11:00.047Z,173.58
2023-08-12T07:12:00.070Z,171.65
2023-08-12T07:13:00.093Z,171.97
2023-08-12T07:14:00.112Z,175.49
2023-08-12T07:15:00.165Z,179.82
2023-08-12T07:16:00.186Z,182.52
2023-08-12T07:17:00.171Z,183.11
2023-08-12T07:18:00.264Z,182.12
2023-08-12T07:19:00.176Z,182.43
2023-08-12T07:20:00.236Z,181.86
2023-08-12T07:21:00.247Z,182.54
2023-08-12T07:22:00.197Z,180.98
2023-08-12T07:23:00.181Z,181.25
2023-08-12T07:25:00.280Z,180.77
2023-08-12T07:26:00.180Z,176.58
2023-08-12T07:27:00.173Z,178.41
2023-08-12T07:28:00.159Z,177.52
2023-08-12T07:29:00.159Z,179.66
2023-08-12T07:30:00.198Z,179.65
2023-08-12T07:31:00.158Z,179.77
2023-08-12T07:32:00.133Z,178.84
2023-08-12T07:33:00.136Z,178.54
2023-08-12T07:34:00.135Z,174.40
2023-08-12T07:35:00.143Z,174.55
2023-08-12T07:36:00.109Z,173.04
2023-08-12T07:37:00.091Z,173.76
2023-08-12T07:38:00.107Z,169.55
2023-08-12T07:39:00.071Z,171.10
2023-08-12T07:40:00.088Z,170.94
2023-08-12T07:41:00.063Z,170.12
2023-08-12T07:42:00.078Z,168.90
2023-08-12T07:43:00.045Z,167.50
2023-08-12T07:44:00.058Z,167.49
2023-08-12T07:45:00.119Z,167.01
2023-08-12T07:46:09.494Z,169.47
2023-08-12T07:47:01.091Z,169.85
2023-08-12T07:48:00.071Z,169.98
2023-08-12T07:49:00.025Z,169.94
2023-08-12T07:50:00.032Z,171.57
2023-08-12T07:51:00.012Z,169.35
2023-08-12T07:52:00.001Z,170.42
2023-08-12T07:52:59.988Z,171.64
2023-08-12T07:54:00.010Z,167.86
2023-08-12T07:54:59.968Z,169.26
2023-08-12T07:55:59.973Z,170.35
2023-08-12T07:56:59.957Z,170.61
2023-08-12T07:57:59.966Z,173.54
2023-08-12T07:58:59.993Z,175.36
2023-08-12T07:59:59.960Z,174.29
2023-08-12T08:00:59.975Z,172.28
2023-08-12T08:02:00.025Z,169.88
2023-08-12T08:02:59.958Z,173.99
2023-08-12T08:03:59.927Z,171.45
2023-08-12T08:04:59.957Z,171.30
2023-08-12T08:05:59.897Z,166.14
2023-08-12T08:06:59.922Z,165.61
2023-08-12T08:07:59.900Z,162.46
2023-08-12T08:08:59.929Z,167.41
2023-08-12T08:09:59.870Z,167.61
2023-08-12T08:10:59.896Z,171.54
2023-08-12T08:11:59.876Z,170.11
2023-08-12T08:12:59.877Z,165.92
2023-08-12T08:13:59.864Z,169.29
2023-08-12T08:14:59.869Z,170.16
2023-08-12T08:15:59.882Z,178.82
2023-08-12T08:16:59.931Z,177.51
2023-08-12T08:18:59.852Z,182.94
2023-08-12T08:19:59.915Z,184.14
2023-08-12T08:22:00.946Z,183.68
2023-08-12T08:22:59.973Z,184.58
2023-08-12T08:23:59.951Z,184.79
2023-08-12T08:24:59.954Z,184.59
2023-08-12T08:26:00.895Z,187.56
2023-08-12T08:26:59.925Z,182.44
2023-08-12T08:27:59.921Z,183.51
2023-08-12T08:28:59.933Z,185.52
2023-08-12T08:29:59.913Z,182.82
2023-08-12T08:30:59.982Z,186.14
2023-08-12T08:31:59.999Z,186.22
2023-08-12T08:33:00.098Z,183.29
2023-08-12T08:34:00.144Z,186.11
2023-08-12T08:35:00.267Z,185.31
2023-08-12T08:36:00.230Z,185.53
2023-08-12T08:37:00.297Z,184.28
2023-08-12T08:38:00.331Z,185.56
2023-08-12T08:39:00.436Z,187.42
2023-08-12T08:40:00.472Z,184.06
2023-08-12T08:41:00.526Z,190.76
2023-08-12T08:42:00.560Z,187.40
2023-08-12T08:43:00.632Z,186.73
2023-08-12T08:44:00.676Z,183.93
2023-08-12T08:45:00.755Z,181.66
2023-08-12T08:46:00.821Z,184.11
2023-08-12T08:47:00.844Z,183.01
2023-08-12T08:48:00.902Z,187.50
2023-08-12T08:49:00.967Z,188.98
2023-08-12T08:50:00.996Z,190.22
2023-08-12T08:51:01.058Z,190.83
2023-08-12T08:52:01.068Z,185.46
2023-08-12T08:53:01.136Z,183.98
2023-08-12T08:54:03.792Z,185.23
2023-08-12T08:55:03.319Z,182.58
2023-08-12T08:56:01.728Z,182.77
2023-08-12T08:57:06.903Z,183.28
2023-08-12T08:58:05.508Z,182.87
2023-08-12T08:59:01.129Z,183.07
2023-08-12T09:00:01.182Z,184.28
2023-08-12T09:01:01.144Z,186.55
2023-08-12T09:02:01.161Z,186.63
2023-08-12T09:03:01.197Z,189.13
2023-08-12T09:04:01.088Z,190.26
2023-08-12T09:05:01.151Z,188.61
2023-08-12T09:06:01.095Z,185.62
2023-08-12T09:07:01.086Z,190.03
2023-08-12T09:08:01.065Z,192.80
2023-08-12T09:09:01.076Z,191.87
2023-08-12T09:10:01.076Z,191.35
2023-08-12T09:11:01.068Z,190.48
2023-08-12T09:12:01.039Z,191.74
2023-08-12T09:13:01.104Z,189.89
2023-08-12T09:14:01.044Z,189.14
2023-08-12T09:15:01.082Z,185.98
2023-08-12T09:16:01.120Z,187.82
2023-08-12T09:17:01.036Z,187.62
2023-08-12T09:18:01.052Z,188.86
2023-08-12T09:19:01.019Z,185.91
2023-08-12T09:20:01.013Z,188.51
2023-08-12T09:21:01.014Z,188.63
2023-08-12T09:22:00.997Z,187.07
2023-08-12T09:23:00.999Z,187.55
2023-08-12T09:24:00.984Z,189.50
2023-08-12T09:25:00.974Z,189.26
2023-08-12T09:26:00.969Z,187.87
2023-08-12T09:27:00.976Z,191.99
2023-08-12T09:28:00.984Z,188.67
2023-08-12T09:29:00.955Z,188.24
2023-08-12T09:30:00.982Z,188.72
2023-08-12T09:31:00.984Z,189.54
2023-08-12T09:32:01.030Z,189.60
2023-08-12T09:33:01.064Z,188.08
2023-08-12T09:34:01.019Z,188.80
2023-08-12T09:35:01.023Z,187.87
2023-08-12T09:36:01.068Z,188.00
2023-08-12T09:37:01.041Z,187.50
2023-08-12T09:38:01.040Z,185.91
2023-08-12T09:39:01.049Z,187.79
2023-08-12T09:40:01.050Z,186.21
2023-08-12T09:41:01.029Z,183.96
2023-08-12T09:42:01.051Z,183.08
2023-08-12T09:43:01.013Z,182.79
2023-08-12T09:44:01.038Z,181.70
2023-08-12T09:45:01.030Z,182.64
2023-08-12T09:46:01.035Z,181.59
2023-08-12T09:47:01.024Z,182.69
2023-08-12T09:48:01.126Z,184.07
2023-08-12T09:49:01.044Z,182.78
2023-08-12T09:50:00.998Z,183.14
2023-08-12T09:51:01.041Z,185.71
2023-08-12T09:52:01.010Z,185.32
2023-08-12T09:53:00.999Z,187.39
2023-08-12T09:54:01.013Z,185.36
2023-08-12T09:55:01.017Z,184.11
2023-08-12T09:56:01.013Z,183.78
2023-08-12T09:57:01.033Z,183.31
2023-08-12T09:58:00.981Z,184.86
2023-08-12T09:59:00.984Z,181.30
2023-08-12T10:00:00.973Z,183.82
2023-08-12T10:01:00.989Z,181.94
2023-08-12T10:02:00.993Z,182.75
2023-08-12T10:03:01.004Z,181.66
2023-08-12T10:04:01.028Z,181.61
2023-08-12T10:05:00.960Z,181.08
2023-08-12T10:06:00.994Z,180.80
2023-08-12T10:07:01.038Z,180.24
2023-08-12T10:08:00.980Z,180.56
2023-08-12T10:09:00.967Z,178.82
2023-08-12T10:10:01.015Z,178.08
2023-08-12T10:11:12.440Z,176.04
2023-08-12T10:12:01.958Z,176.25
2023-08-12T10:13:00.963Z,176.73
2023-08-12T10:14:00.984Z,177.31
2023-08-12T10:15:00.953Z,178.23
2023-08-12T10:16:00.982Z,175.19
2023-08-12T10:17:05.574Z,177.49
2023-08-12T10:18:01.979Z,177.60
2023-08-12T10:19:00.930Z,176.25
2023-08-12T10:20:01.005Z,172.50
2023-08-12T10:21:00.925Z,173.73
2023-08-12T10:22:00.920Z,173.87
2023-08-12T10:23:00.900Z,177.65
2023-08-12T10:24:00.876Z,175.50
2023-08-12T10:25:00.873Z,176.00
2023-08-12T10:26:00.912Z,175.72
2023-08-12T10:27:00.855Z,173.38
2023-08-12T10:28:00.901Z,173.24
2023-08-12T10:29:00.858Z,171.63
2023-08-12T10:30:00.893Z,172.12
2023-08-12T10:31:00.848Z,173.62
2023-08-12T10:32:00.837Z,173.60
2023-08-12T10:33:00.865Z,171.16
2023-08-12T10:34:00.827Z,170.05
2023-08-12T10:35:00.824Z,165.66
2023-08-12T10:36:00.827Z,169.26
2023-08-12T10:37:03.421Z,167.80
2023-08-12T10:38:00.800Z,173.75
2023-08-12T10:39:00.781Z,170.22
2023-08-12T10:40:00.813Z,169.12
2023-08-12T10:41:00.780Z,167.44
2023-08-12T10:42:00.809Z,169.31
2023-08-12T10:43:00.795Z,168.08
2023-08-12T10:44:00.786Z,165.75
2023-08-12T10:45:00.736Z,165.36
2023-08-12T10:46:00.753Z,162.87
2023-08-12T10:47:00.841Z,162.20
2023-08-12T10:48:00.815Z,162.38
2023-08-12T10:49:00.768Z,164.26
2023-08-12T10:50:00.731Z,159.63
2023-08-12T10:51:00.755Z,162.32
2023-08-12T10:52:00.732Z,162.11
2023-08-12T10:53:00.696Z,158.92
2023-08-12T10:54:00.711Z,159.69
2023-08-12T10:55:00.719Z,155.86
2023-08-12T10:56:00.698Z,152.57
2023-08-12T10:57:00.668Z,155.48
2023-08-12T10:58:00.686Z,154.27
2023-08-12T10:59:00.708Z,153.46
2023-08-12T11:00:00.674Z,153.28
2023-08-12T11:01:00.723Z,150.28
2023-08-12T11:02:00.651Z,155.05
2023-08-12T11:03:00.731Z,152.20
2023-08-12T11:04:00.674Z,149.88
2023-08-12T11:05:00.625Z,151.83
2023-08-12T11:06:00.685Z,149.95
2023-08-12T11:07:00.642Z,149.76
2023-08-12T11:08:00.639Z,146.55
2023-08-12T11:09:00.603Z,144.87
2023-08-12T11:10:00.607Z,145.57
2023-08-12T11:11:00.594Z,145.22
2023-08-12T11:12:00.592Z,145.55
2023-08-12T11:13:00.610Z,144.88
2023-08-12T11:14:00.576Z,142.40
2023-08-12T11:15:00.608Z,142.12
2023-08-12T11:16:00.572Z,142.89
2023-08-12T11:17:00.694Z,145.25
2023-08-12T11:18:00.680Z,143.44
2023-08-12T11:19:00.753Z,139.92
2023-08-12T11:20:00.763Z,140.98
2023-08-12T11:21:00.810Z,139.38
2023-08-12T11:22:00.881Z,141.77
2023-08-12T11:23:00.924Z,139.29
2023-08-12T11:24:00.913Z,142.19
2023-08-12T11:25:00.942Z,140.76
2023-08-12T11:26:00.962Z,138.84
2023-08-12T11:27:01.048Z,140.61
2023-08-12T11:28:01.071Z,142.71
2023-08-12T11:29:01.063Z,142.38
2023-08-12T11:30:01.138Z,140.72
2023-08-12T11:31:01.208Z,139.65
2023-08-12T11:32:01.227Z,137.64
2023-08-12T11:33:01.282Z,140.13
2023-08-12T11:34:01.212Z,137.53
2023-08-12T11:35:01.220Z,135.48
2023-08-12T11:36:01.222Z,135.83
2023-08-12T11:37:01.256Z,135.96
2023-08-12T11:38:01.284Z,131.05
2023-08-12T11:39:01.304Z,132.57
2023-08-12T11:40:01.337Z,127.57
2023-08-12T11:41:01.364Z,122.19
2023-08-12T11:42:01.406Z,123.49
2023-08-12T11:43:01.439Z,126.85
2023-08-12T11:44:01.450Z,122.41
2023-08-12T11:45:01.515Z,125.00
2023-08-12T11:46:01.586Z,123.86
2023-08-12T11:47:01.563Z,122.62
2023-08-12T11:48:01.646Z,125.83
2023-08-12T11:49:01.654Z,128.93
2023-08-12T11:50:01.656Z,127.11
2023-08-12T11:51:01.719Z,130.49
2023-08-12T11:52:01.697Z,129.36
2023-08-12T11:53:01.733Z,124.58
2023-08-12T11:54:01.797Z,125.74
2023-08-12T11:55:01.811Z,125.88
2023-08-12T11:56:01.949Z,122.99
2023-08-12T11:57:02.058Z,123.09
2023-08-12T11:58:02.486Z,118.92
2023-08-12T11:59:02.029Z,117.29
2023-08-12T12:00:02.968Z,121.88
2023-08-12T12:01:02.077Z,122.42
2023-08-12T12:02:02.176Z,122.16
2023-08-12T12:03:02.240Z,122.04
2023-08-12T12:04:03.044Z,115.63
2023-08-12T12:05:02.255Z,110.24
2023-08-12T12:06:02.400Z,106.62
2023-08-12T12:07:02.355Z,99.90
2023-08-12T12:08:02.364Z,92.33
2023-08-12T12:09:02.398Z,99.47
2023-08-12T12:10:02.432Z,103.43
2023-08-12T12:11:02.472Z,98.89
2023-08-12T12:12:02.544Z,95.38
2023-08-12T12:13:02.606Z,91.35
2023-08-12T12:14:02.620Z,92.50
2023-08-12T12:15:02.664Z,94.62
2023-08-12T12:16:02.708Z,97.60
2023-08-12T12:17:02.743Z,92.73
2023-08-12T12:18:02.791Z,91.36
2023-08-12T12:19:02.826Z,90.06
2023-08-12T12:20:02.847Z,89.93
2023-08-12T12:21:02.902Z,91.13
2023-08-12T12:22:03.014Z,94.33
2023-08-12T12:23:03.000Z,91.01
2023-08-12T12:24:03.064Z,91.62
2023-08-12T12:25:03.102Z,95.32
2023-08-12T12:26:03.109Z,91.65
2023-08-12T12:27:03.163Z,92.99
2023-08-12T12:28:03.513Z,92.46
2023-08-12T12:29:03.247Z,90.36
2023-08-12T12:30:03.286Z,86.70
2023-08-12T12:31:03.314Z,88.37
2023-08-12T12:32:03.327Z,88.45
2023-08-12T12:33:03.434Z,88.44